createdAt,value
2018-08-28T00:02:22.619Z,4.50
2018-08-28T00:04:52.021Z,4.53
2018-08-28T00:07:21.253Z,4.13
2018-08-28T00:09:50.606Z,3.97
2018-08-28T00:12:20.534Z,4.63
2018-08-28T00:14:49.934Z,5.23
2018-08-28T00:17:19.439Z,5.23
2018-08-28T00:19:48.689Z,4.87
2018-08-28T00:22:18.163Z,4.50
2018-08-28T00:24:47.731Z,4.67
2018-08-28T00:27:17.366Z,5.10
2018-08-28T00:29:46.694Z,6.80
2018-08-28T00:32:16.524Z,4.27
2018-08-28T00:34:46.300Z,4.43
2018-08-28T00:37:15.680Z,7.23
2018-08-28T00:39:45.184Z,6.97
2018-08-28T00:42:14.690Z,5.50
2018-08-28T00:44:44.194Z,7.57
2018-08-28T00:47:13.595Z,7.67
2018-08-28T00:49:42.996Z,7.27
2018-08-28T00:52:12.407Z,8.40
2018-08-28T00:54:41.903Z,8.03
2018-08-28T00:57:11.307Z,8.20
2018-08-28T00:59:40.629Z,8.23
2018-08-28T01:02:10.009Z,8.57
2018-08-28T01:04:39.510Z,7.73
2018-08-28T01:07:09.039Z,8.43
2018-08-28T01:09:38.520Z,10.27
2018-08-28T01:12:07.847Z,7.83
2018-08-28T01:14:37.359Z,7.13
2018-08-28T01:17:06.830Z,9.07
2018-08-28T01:19:36.355Z,10.50
2018-08-28T01:22:06.144Z,10.87
2018-08-28T01:24:35.668Z,10.80
2018-08-28T01:27:05.152Z,13.23
2018-08-28T01:29:34.556Z,10.50
2018-08-28T01:32:04.163Z,9.77
2018-08-28T01:34:33.636Z,11.83
2018-08-28T01:37:03.088Z,11.27
2018-08-28T01:39:32.474Z,11.13
2018-08-28T01:42:01.973Z,11.40
2018-08-28T01:44:31.477Z,13.23
2018-08-28T01:47:01.141Z,13.87
2018-08-28T01:49:30.408Z,11.03
2018-08-28T01:51:59.689Z,11.67
2018-08-28T01:54:29.088Z,13.23
2018-08-28T01:56:58.557Z,13.00
2018-08-28T01:59:27.993Z,10.03
2018-08-28T02:01:57.496Z,10.17
2018-08-28T02:04:26.751Z,12.17
2018-08-28T02:06:56.097Z,10.40
2018-08-28T02:09:25.503Z,13.87
2018-08-28T02:11:54.763Z,11.20
2018-08-28T02:14:24.199Z,10.10
2018-08-28T02:16:53.601Z,10.90
2018-08-28T02:19:22.871Z,10.70
2018-08-28T02:21:52.102Z,13.77
2018-08-28T02:24:21.498Z,11.97
2018-08-28T02:26:51.079Z,12.43
2018-08-28T02:29:20.508Z,14.30
2018-08-28T02:31:49.910Z,12.20
2018-08-28T02:34:19.312Z,12.70
2018-08-28T02:36:48.919Z,13.20
2018-08-28T02:39:18.223Z,11.40
2018-08-28T02:41:47.462Z,10.37
2018-08-28T02:44:17.022Z,12.67
2018-08-28T02:46:46.224Z,10.30
2018-08-28T02:49:15.518Z,12.30
2018-08-28T02:51:44.817Z,15.17
2018-08-28T02:54:14.426Z,11.17
2018-08-28T02:56:43.728Z,12.40
2018-08-28T02:59:13.231Z,12.53
2018-08-28T03:01:42.411Z,13.17
2018-08-28T03:04:11.828Z,11.97
2018-08-28T03:06:41.290Z,11.50
2018-08-28T03:09:10.511Z,14.43
2018-08-28T03:11:39.967Z,12.27
2018-08-28T03:14:09.512Z,12.40
2018-08-28T03:16:39.247Z,14.83
2018-08-28T03:19:08.982Z,14.70
2018-08-28T03:21:38.471Z,14.33
2018-08-28T03:24:07.851Z,14.80
2018-08-28T03:26:37.367Z,15.13
2018-08-28T03:29:06.800Z,12.33
2018-08-28T03:31:36.274Z,15.30
2018-08-28T03:34:05.886Z,15.33
2018-08-28T03:36:35.486Z,12.93
2018-08-28T03:39:05.525Z,14.13
2018-08-28T03:41:35.212Z,15.17
2018-08-28T03:44:04.716Z,14.53
2018-08-28T03:46:34.323Z,12.47
2018-08-28T03:49:04.040Z,12.13
2018-08-28T03:51:33.644Z,11.70
2018-08-28T03:54:04.160Z,12.97
2018-08-28T03:56:35.615Z,13.30
2018-08-28T03:59:05.018Z,14.00
2018-08-28T04:01:34.421Z,11.07
2018-08-28T04:04:03.760Z,13.67
2018-08-28T04:06:33.327Z,12.73
2018-08-28T04:09:03.140Z,13.53
2018-08-28T04:11:32.643Z,12.60
2018-08-28T04:14:02.008Z,12.70
2018-08-28T04:16:31.516Z,12.17
2018-08-28T04:19:00.854Z,13.50
2018-08-28T04:21:33.324Z,15.87
2018-08-28T04:24:02.624Z,13.20
2018-08-28T04:26:32.027Z,15.20
2018-08-28T04:29:01.431Z,13.03
2018-08-28T04:31:30.933Z,10.50
2018-08-28T04:34:00.340Z,12.13
2018-08-28T04:36:29.551Z,14.50
2018-08-28T04:38:58.887Z,12.63
2018-08-28T04:41:28.339Z,15.30
2018-08-28T04:43:57.896Z,15.00
2018-08-28T04:46:27.348Z,12.20
2018-08-28T04:48:56.606Z,12.10
2018-08-28T04:51:25.945Z,15.13
2018-08-28T04:53:55.349Z,12.33
2018-08-28T04:56:24.679Z,14.90
2018-08-28T04:58:54.055Z,12.63
2018-08-28T05:01:23.654Z,13.37
2018-08-28T05:03:53.054Z,12.13
2018-08-28T05:06:23.586Z,13.03
2018-08-28T05:08:53.024Z,13.97
2018-08-28T05:11:22.392Z,14.50
2018-08-28T05:13:53.891Z,12.17
2018-08-28T05:16:23.343Z,11.47
2018-08-28T05:18:52.747Z,14.77
2018-08-28T05:21:22.148Z,14.00
2018-08-28T05:23:52.630Z,13.73
2018-08-28T05:26:21.897Z,14.87
2018-08-28T05:28:51.371Z,12.80
2018-08-28T05:31:20.982Z,12.87
2018-08-28T05:33:50.397Z,13.60
2018-08-28T05:36:20.706Z,12.83
2018-08-28T05:38:50.114Z,12.17
2018-08-28T05:41:19.718Z,13.23
2018-08-28T05:43:49.119Z,12.17
2018-08-28T05:46:18.876Z,15.00
2018-08-28T05:48:48.230Z,12.73
2018-08-28T05:51:17.631Z,13.40
2018-08-28T05:53:47.033Z,12.93
2018-08-28T05:56:16.590Z,13.80
2018-08-28T05:58:46.006Z,17.97
2018-08-28T06:01:15.447Z,14.80
2018-08-28T06:03:44.845Z,18.20
2018-08-28T06:06:14.145Z,13.43
2018-08-28T06:08:43.551Z,13.63
2018-08-28T06:11:13.371Z,16.03
2018-08-28T06:13:42.610Z,14.37
2018-08-28T06:16:11.833Z,14.53
2018-08-28T06:18:41.075Z,17.13
2018-08-28T06:21:10.366Z,17.77
2018-08-28T06:23:39.650Z,13.50
2018-08-28T06:26:08.881Z,13.57
2018-08-28T06:28:38.352Z,12.60
2018-08-28T06:31:07.755Z,13.90
2018-08-28T06:33:43.608Z,14.57
2018-08-28T06:36:13.116Z,14.60
2018-08-28T06:38:42.515Z,15.03
2018-08-28T06:41:11.858Z,15.20
2018-08-28T06:43:47.682Z,13.80
2018-08-28T06:46:17.172Z,14.60
2018-08-28T06:48:46.573Z,14.60
2018-08-28T06:51:15.975Z,14.97
2018-08-28T06:53:45.377Z,15.20
2018-08-28T06:56:14.669Z,13.17
2018-08-28T06:58:44.179Z,13.27
2018-08-28T07:01:13.583Z,17.20
2018-08-28T07:03:43.013Z,18.63
2018-08-28T07:06:12.445Z,16.03
2018-08-28T07:08:41.789Z,13.13
2018-08-28T07:11:11.299Z,14.53
2018-08-28T07:13:40.744Z,14.37
2018-08-28T07:16:10.098Z,13.17
2018-08-28T07:18:39.329Z,13.10
2018-08-28T07:21:08.593Z,13.40
2018-08-28T07:23:37.997Z,12.97
2018-08-28T07:26:07.445Z,12.50
2018-08-28T07:28:36.901Z,14.20
2018-08-28T07:31:06.406Z,16.87
2018-08-28T07:33:35.639Z,13.13
2018-08-28T07:36:04.827Z,11.47
2018-08-28T07:38:34.048Z,9.83
2018-08-28T07:41:03.399Z,7.90
2018-08-28T07:43:32.703Z,11.60
2018-08-28T07:46:02.007Z,10.30
2018-08-28T07:48:31.485Z,9.47
2018-08-28T07:51:00.904Z,8.13
2018-08-28T07:53:30.307Z,11.43
2018-08-28T07:55:59.492Z,10.00
2018-08-28T07:58:28.803Z,9.67
2018-08-28T08:00:58.204Z,10.20
2018-08-28T08:03:27.607Z,10.97
2018-08-28T08:05:57.114Z,8.83
2018-08-28T08:08:26.514Z,9.53
2018-08-28T08:10:56.018Z,10.13
2018-08-28T08:13:25.518Z,10.20
2018-08-28T08:15:54.978Z,9.63
2018-08-28T08:18:24.428Z,8.83
2018-08-28T08:20:53.838Z,6.73
2018-08-28T08:23:23.176Z,6.10
2018-08-28T08:25:52.471Z,6.67
2018-08-28T08:28:21.966Z,6.40
2018-08-28T08:30:51.542Z,6.70
2018-08-28T08:33:20.941Z,7.95
2018-08-28T08:35:50.347Z,7.53
2018-08-28T08:38:19.825Z,6.70
2018-08-28T08:40:49.454Z,6.55
2018-08-28T08:43:18.856Z,7.03
2018-08-28T08:45:48.426Z,5.43
2018-08-28T08:48:17.866Z,7.60
2018-08-28T08:50:47.457Z,8.18
2018-08-28T08:53:16.637Z,9.43
2018-08-28T08:55:46.070Z,9.35
2018-08-28T08:58:15.474Z,8.40
2018-08-28T09:00:44.671Z,6.67
2018-08-28T09:03:13.941Z,6.30
2018-08-28T09:05:43.460Z,6.33
2018-08-28T09:08:12.877Z,6.20
2018-08-28T09:10:42.380Z,6.27
2018-08-28T09:13:12.459Z,7.22
2018-08-28T09:15:41.654Z,6.12
2018-08-28T09:18:10.904Z,6.72
2018-08-28T09:20:40.294Z,7.80
2018-08-28T09:23:09.800Z,8.83
2018-08-28T09:25:39.201Z,5.72
2018-08-28T09:28:08.656Z,7.15
2018-08-28T09:30:38.112Z,5.53
2018-08-28T09:33:07.509Z,4.92
2018-08-28T09:35:36.913Z,5.87
2018-08-28T09:38:06.170Z,16.73
2018-08-28T09:40:35.410Z,5.80
2018-08-28T09:43:04.815Z,16.65
2018-08-28T09:45:34.220Z,22.02
2018-08-28T09:48:03.787Z,9.90
2018-08-28T09:50:33.064Z,5.72
2018-08-28T09:53:02.422Z,13.78
2018-08-28T09:55:31.923Z,11.60
2018-08-28T09:58:01.148Z,7.55
2018-08-28T10:00:30.511Z,4.78
2018-08-28T10:02:59.924Z,5.05
2018-08-28T10:05:29.223Z,5.10
2018-08-28T10:07:58.619Z,5.10
2018-08-28T10:10:27.927Z,12.13
2018-08-28T10:12:57.140Z,12.65
2018-08-28T10:15:26.368Z,5.03
2018-08-28T10:17:55.720Z,7.42
2018-08-28T10:20:24.954Z,6.05
2018-08-28T10:22:54.393Z,4.92
2018-08-28T10:25:23.915Z,4.67
2018-08-28T10:27:53.227Z,4.28
2018-08-28T10:30:22.740Z,4.72
2018-08-28T10:32:51.937Z,6.12
2018-08-28T10:35:21.433Z,4.12
2018-08-28T10:37:50.851Z,5.37
2018-08-28T10:40:20.678Z,5.40
2018-08-28T10:42:50.155Z,6.50
2018-08-28T10:45:19.655Z,4.70
2018-08-28T10:47:48.851Z,5.35
2018-08-28T10:50:18.254Z,4.58
2018-08-28T10:52:47.527Z,6.10
2018-08-28T10:55:16.786Z,5.45
2018-08-28T10:57:46.256Z,7.15
2018-08-28T11:00:15.494Z,8.13
2018-08-28T11:02:45.039Z,7.25
2018-08-28T11:05:14.463Z,5.85
2018-08-28T11:07:43.866Z,5.37
2018-08-28T11:10:13.167Z,7.62
2018-08-28T11:12:42.563Z,5.58
2018-08-28T11:15:11.930Z,7.05
2018-08-28T11:17:41.367Z,6.10
2018-08-28T11:20:10.874Z,5.95
2018-08-28T11:22:40.175Z,5.62
2018-08-28T11:25:10.064Z,6.85
2018-08-28T11:27:39.698Z,5.75
2018-08-28T11:30:09.203Z,5.70
2018-08-28T11:32:38.841Z,6.03
2018-08-28T11:35:08.310Z,6.55
2018-08-28T11:37:37.813Z,6.40
2018-08-28T11:40:07.420Z,5.70
2018-08-28T11:42:36.824Z,5.90
2018-08-28T11:45:06.537Z,6.08
2018-08-28T11:47:36.016Z,6.42
2018-08-28T11:50:05.540Z,6.67
2018-08-28T11:52:34.848Z,5.03
2018-08-28T11:55:04.138Z,5.92
2018-08-28T11:57:33.360Z,5.22
2018-08-28T12:00:02.841Z,7.03
2018-08-28T12:02:32.145Z,5.42
2018-08-28T12:05:01.456Z,5.47
2018-08-28T12:07:30.670Z,4.87
2018-08-28T12:10:00.143Z,6.70
2018-08-28T12:12:29.748Z,6.00
2018-08-28T12:14:59.024Z,5.50
2018-08-28T12:17:28.283Z,5.55
2018-08-28T12:19:57.751Z,5.95
2018-08-28T12:22:27.048Z,5.20
2018-08-28T12:24:56.450Z,5.70
2018-08-28T12:27:25.679Z,5.72
2018-08-28T12:29:55.358Z,5.28
2018-08-28T12:32:24.890Z,4.70
2018-08-28T12:34:54.120Z,6.25
2018-08-28T12:37:23.406Z,5.40
2018-08-28T12:39:52.763Z,6.15
2018-08-28T12:42:22.367Z,9.50
2018-08-28T12:44:51.795Z,5.65
2018-08-28T12:47:21.006Z,7.80
2018-08-28T12:49:50.231Z,13.78
2018-08-28T12:52:19.564Z,4.72
2018-08-28T12:54:48.907Z,9.83
2018-08-28T12:57:18.575Z,7.60
2018-08-28T12:59:48.080Z,5.08
2018-08-28T13:02:17.410Z,5.10
2018-08-28T13:04:46.816Z,5.65
2018-08-28T13:07:16.256Z,7.72
2018-08-28T13:09:45.455Z,6.90
2018-08-28T13:12:14.745Z,7.95
2018-08-28T13:14:44.316Z,5.67
2018-08-28T13:17:13.427Z,8.58
2018-08-28T13:19:42.886Z,8.48
2018-08-28T13:22:12.595Z,8.65
2018-08-28T13:24:41.997Z,7.10
2018-08-28T13:27:11.402Z,7.17
2018-08-28T13:29:40.922Z,6.42
2018-08-28T13:32:10.315Z,5.20
2018-08-28T13:34:40.842Z,5.28
2018-08-28T13:37:10.235Z,10.65
2018-08-28T13:39:39.739Z,6.05
2018-08-28T13:42:09.028Z,10.23
2018-08-28T13:44:38.447Z,6.92
2018-08-28T13:47:07.899Z,6.47
2018-08-28T13:49:37.247Z,7.92
2018-08-28T13:52:06.650Z,8.88
2018-08-28T13:54:36.156Z,7.72
2018-08-28T13:57:05.659Z,8.05
2018-08-28T13:59:35.163Z,6.00
2018-08-28T14:02:04.730Z,8.58
2018-08-28T14:04:34.320Z,8.30
2018-08-28T14:07:03.675Z,7.47
2018-08-28T14:09:33.079Z,6.20
2018-08-28T14:12:02.480Z,9.53
2018-08-28T14:14:31.883Z,6.40
2018-08-28T14:17:01.389Z,8.45
2018-08-28T14:19:30.672Z,7.00
2018-08-28T14:22:00.092Z,7.17
2018-08-28T14:24:29.389Z,7.75
2018-08-28T14:26:58.734Z,7.62
2018-08-28T14:29:28.191Z,9.25
2018-08-28T14:31:57.591Z,9.35
2018-08-28T14:34:26.996Z,6.90
2018-08-28T14:36:56.286Z,9.75
2018-08-28T14:39:25.798Z,11.73
2018-08-28T14:41:55.046Z,18.12
2018-08-28T14:44:24.410Z,15.95
2018-08-28T14:46:58.509Z,13.30
2018-08-28T14:49:27.911Z,9.95
2018-08-28T14:51:57.414Z,15.10
2018-08-28T14:54:26.820Z,6.87
2018-08-28T14:56:56.117Z,18.25
2018-08-28T14:59:25.422Z,10.18
2018-08-28T15:01:55.023Z,14.98
2018-08-28T15:04:24.324Z,10.18
2018-08-28T15:06:53.842Z,5.72
2018-08-28T15:09:23.231Z,5.25
2018-08-28T15:11:52.627Z,6.33
2018-08-28T15:14:22.042Z,4.60
2018-08-28T15:16:51.333Z,4.95
2018-08-28T15:19:20.579Z,7.05
2018-08-28T15:21:49.933Z,7.67
2018-08-28T15:24:19.335Z,9.13
2018-08-28T15:26:49.559Z,6.12
2018-08-28T15:29:19.061Z,7.28
2018-08-28T15:31:48.299Z,7.83
2018-08-28T15:34:17.730Z,5.83
2018-08-28T15:36:47.164Z,4.30
2018-08-28T15:39:16.566Z,5.80
2018-08-28T15:41:45.865Z,6.78
2018-08-28T15:44:15.131Z,5.37
2018-08-28T15:46:44.466Z,6.78
2018-08-28T15:49:13.866Z,6.65
2018-08-28T15:51:43.407Z,7.08
2018-08-28T15:54:13.286Z,5.60
2018-08-28T15:56:42.688Z,5.37
2018-08-28T15:59:12.091Z,8.18
2018-08-28T16:01:41.493Z,6.55
2018-08-28T16:04:15.158Z,7.03
2018-08-28T16:06:45.449Z,6.45
2018-08-28T16:09:15.034Z,7.70
2018-08-28T16:11:44.323Z,8.95
2018-08-28T16:14:14.442Z,5.55
2018-08-28T16:16:44.530Z,7.67
2018-08-28T16:19:13.863Z,6.45
2018-08-28T16:21:46.348Z,6.30
2018-08-28T16:24:17.801Z,6.37
2018-08-28T16:26:47.898Z,6.90
2018-08-28T16:29:17.277Z,7.72
2018-08-28T16:31:46.603Z,9.08
2018-08-28T16:34:16.522Z,5.12
2018-08-28T16:36:45.921Z,5.90
2018-08-28T16:39:15.532Z,5.87
2018-08-28T16:41:45.113Z,6.08
2018-08-28T16:44:14.638Z,7.35
2018-08-28T16:46:44.059Z,9.03
2018-08-28T16:49:13.445Z,8.60
2018-08-28T16:51:42.951Z,7.40
2018-08-28T16:54:12.350Z,5.55
2018-08-28T16:56:41.655Z,6.17
2018-08-28T16:59:10.998Z,6.87
2018-08-28T17:01:40.433Z,8.00
2018-08-28T17:04:09.856Z,8.13
2018-08-28T17:06:39.362Z,9.58
2018-08-28T17:09:08.866Z,6.78
2018-08-28T17:11:38.275Z,6.67
2018-08-28T17:14:07.775Z,6.70
2018-08-28T17:16:37.173Z,6.47
2018-08-28T17:19:06.703Z,6.83
2018-08-28T17:21:36.181Z,7.50
2018-08-28T17:24:05.629Z,7.28
2018-08-28T17:26:35.041Z,6.20
2018-08-28T17:29:04.591Z,6.22
2018-08-28T17:31:33.892Z,7.80
2018-08-28T17:34:03.397Z,7.15
2018-08-28T17:36:32.593Z,9.10
2018-08-28T17:39:02.008Z,7.42
2018-08-28T17:41:31.501Z,7.20
2018-08-28T17:44:00.901Z,8.48
2018-08-28T17:46:30.409Z,7.15
2018-08-28T17:48:59.924Z,7.40
2018-08-28T17:51:29.314Z,8.83
2018-08-28T17:53:58.716Z,7.85
2018-08-28T17:56:28.119Z,8.95
2018-08-28T17:58:57.724Z,7.50
2018-08-28T18:01:27.209Z,5.92
2018-08-28T18:03:56.684Z,5.97
2018-08-28T18:06:26.034Z,7.15
2018-08-28T18:08:55.436Z,5.87
2018-08-28T18:11:24.839Z,9.03
2018-08-28T18:13:54.343Z,6.17
2018-08-28T18:16:23.803Z,8.45
2018-08-28T18:18:53.216Z,9.65
2018-08-28T18:21:22.445Z,7.05
2018-08-28T18:23:51.849Z,7.65
2018-08-28T18:26:21.154Z,5.83
2018-08-28T18:28:50.562Z,8.33
2018-08-28T18:31:20.770Z,7.20
2018-08-28T18:33:50.262Z,6.90
2018-08-28T18:36:22.158Z,8.45
2018-08-28T18:38:51.538Z,6.42
2018-08-28T18:41:21.009Z,7.75
2018-08-28T18:43:50.663Z,10.20
2018-08-28T18:46:19.947Z,8.88
2018-08-28T18:48:49.350Z,7.28
2018-08-28T18:51:18.753Z,6.05
2018-08-28T18:53:48.010Z,7.63
2018-08-28T18:56:17.417Z,5.87
2018-08-28T18:58:46.857Z,5.37
2018-08-28T19:01:16.319Z,7.13
2018-08-28T19:03:45.763Z,5.60
2018-08-28T19:06:15.062Z,5.97
2018-08-28T19:08:53.141Z,7.60
2018-08-28T19:11:34.145Z,9.93
2018-08-28T19:14:03.648Z,7.23
2018-08-28T19:16:33.150Z,6.40
2018-08-28T19:19:02.558Z,8.97
2018-08-28T19:21:32.054Z,5.67
2018-08-28T19:24:01.563Z,7.27
2018-08-28T19:26:30.883Z,7.40
2018-08-28T19:29:00.270Z,5.97
2018-08-28T19:31:29.667Z,8.93
2018-08-28T19:33:59.170Z,8.37
2018-08-28T19:36:28.676Z,8.83
2018-08-28T19:38:58.078Z,10.37
2018-08-28T19:41:27.477Z,6.30
2018-08-28T19:43:56.879Z,9.20
2018-08-28T19:46:26.285Z,7.63
2018-08-28T19:48:55.684Z,7.60
2018-08-28T19:51:25.319Z,8.90
2018-08-28T19:53:55.002Z,9.70
2018-08-28T19:56:31.060Z,9.43
2018-08-28T19:59:00.567Z,9.40
2018-08-28T20:01:29.966Z,8.43
2018-08-28T20:03:59.415Z,7.67
2018-08-28T20:06:28.870Z,9.87
2018-08-28T20:08:58.272Z,8.30
2018-08-28T20:11:27.777Z,7.10
2018-08-28T20:13:57.283Z,8.80
2018-08-28T20:16:26.685Z,7.20
2018-08-28T20:18:56.087Z,11.40
2018-08-28T20:21:25.489Z,10.20
2018-08-28T20:23:54.792Z,8.07
2018-08-28T20:26:24.135Z,11.33
2018-08-28T20:28:53.565Z,7.43
2018-08-28T20:31:23.058Z,9.63
2018-08-28T20:33:52.348Z,9.10
2018-08-28T20:36:21.797Z,9.27
2018-08-28T20:38:51.197Z,6.13
2018-08-28T20:41:20.415Z,10.50
2018-08-28T20:43:49.798Z,9.13
2018-08-28T20:46:19.090Z,8.23
2018-08-28T20:48:48.371Z,11.00
2018-08-28T20:51:17.696Z,9.07
2018-08-28T20:53:47.190Z,8.93
2018-08-28T20:56:16.421Z,8.33
2018-08-28T20:58:45.961Z,8.83
2018-08-28T21:01:15.303Z,7.37
2018-08-28T21:03:44.604Z,9.70
2018-08-28T21:06:13.961Z,7.33
2018-08-28T21:08:43.409Z,10.43
2018-08-28T21:11:12.972Z,9.70
2018-08-28T21:13:42.725Z,8.17
2018-08-28T21:16:12.052Z,8.70
2018-08-28T21:18:41.428Z,8.13
2018-08-28T21:21:11.083Z,8.37
2018-08-28T21:23:40.538Z,10.87
2018-08-28T21:26:10.251Z,12.03
2018-08-28T21:28:39.647Z,8.37
2018-08-28T21:31:09.153Z,9.03
2018-08-28T21:33:38.375Z,9.67
2018-08-28T21:36:07.751Z,10.03
2018-08-28T21:38:37.255Z,8.97
2018-08-28T21:41:06.555Z,9.10
2018-08-28T21:43:36.470Z,12.00
2018-08-28T21:46:05.875Z,10.27
2018-08-28T21:48:35.212Z,10.37
2018-08-28T21:51:04.678Z,9.80
2018-08-28T21:53:33.942Z,9.77
2018-08-28T21:56:03.581Z,9.13
2018-08-28T21:58:32.983Z,10.20
2018-08-28T22:01:07.608Z,8.50
2018-08-28T22:03:38.555Z,10.83
2018-08-28T22:06:12.228Z,11.50
2018-08-28T22:08:41.651Z,11.23
2018-08-28T22:11:11.052Z,11.20
2018-08-28T22:13:40.761Z,10.53
2018-08-28T22:16:10.164Z,11.33
2018-08-28T22:18:39.874Z,11.50
2018-08-28T22:21:09.091Z,7.03
2018-08-28T22:23:38.474Z,11.20
2018-08-28T22:26:07.720Z,13.73
2018-08-28T22:28:37.068Z,9.50
2018-08-28T22:31:06.716Z,9.90
2018-08-28T22:33:35.931Z,11.70
2018-08-28T22:36:05.220Z,11.10
2018-08-28T22:38:34.580Z,12.27
2018-08-28T22:41:03.835Z,10.97
2018-08-28T22:43:33.095Z,9.13
2018-08-28T22:46:02.425Z,11.47
2018-08-28T22:48:31.700Z,12.20
2018-08-28T22:51:01.078Z,13.33
2018-08-28T22:53:30.380Z,10.07
2018-08-28T22:55:59.885Z,9.77
2018-08-28T22:58:29.282Z,11.23
2018-08-28T23:00:58.684Z,9.47
2018-08-28T23:03:28.088Z,11.53
2018-08-28T23:05:57.373Z,8.97
2018-08-28T23:08:33.546Z,11.07
2018-08-28T23:11:02.947Z,9.60
2018-08-28T23:13:32.183Z,9.83
2018-08-28T23:16:01.429Z,12.50
2018-08-28T23:18:30.767Z,9.50
2018-08-28T23:21:00.252Z,10.97
2018-08-28T23:23:29.504Z,11.87
2018-08-28T23:25:58.952Z,12.73
2018-08-28T23:28:28.191Z,13.33
2018-08-28T23:30:57.549Z,12.60
2018-08-28T23:33:27.260Z,12.23
2018-08-28T23:35:56.660Z,13.30
2018-08-28T23:38:25.903Z,11.77
2018-08-28T23:40:55.123Z,12.30
2018-08-28T23:43:24.560Z,10.13
2018-08-28T23:45:53.959Z,13.07
2018-08-28T23:48:23.568Z,12.90
2018-08-28T23:50:52.973Z,15.67
2018-08-28T23:53:22.272Z,10.93
2018-08-28T23:55:51.673Z,11.53
2018-08-28T23:58:20.938Z,12.80
